sensor_id;sensor_type;location;lat;lon;timestamp;P1;durP1;ratioP1;P2;durP2;ratioP2
68843;SDS011;55850;51.244;6.824;2022-10-16T00:03:22;5.50;;;2.30;;
68843;SDS011;55850;51.244;6.824;2022-10-16T00:08:31;5.15;;;1.60;;
68843;SDS011;55850;51.244;6.824;2022-10-16T00:13:40;7.60;;;2.07;;
68843;SDS011;55850;51.244;6.824;2022-10-16T00:18:47;4.67;;;1.90;;
68843;SDS011;55850;51.244;6.824;2022-10-16T00:23:56;5.45;;;1.80;;
68843;SDS011;55850;51.244;6.824;2022-10-16T00:29:06;3.30;;;1.53;;
68843;SDS011;55850;51.244;6.824;2022-10-16T00:34:12;5.03;;;1.60;;
68843;SDS011;55850;51.244;6.824;2022-10-16T00:39:18;2.88;;;1.55;;
68843;SDS011;55850;51.244;6.824;2022-10-16T00:49:53;2.90;;;1.50;;
68843;SDS011;55850;51.244;6.824;2022-10-16T00:55:03;2.65;;;1.63;;
68843;SDS011;55850;51.244;6.824;2022-10-16T01:00:15;5.73;;;1.30;;
68843;SDS011;55850;51.244;6.824;2022-10-16T01:05:23;1.87;;;1.37;;
68843;SDS011;55850;51.244;6.824;2022-10-16T01:10:34;2.65;;;1.40;;
68843;SDS011;55850;51.244;6.824;2022-10-16T01:15:45;2.70;;;1.70;;
68843;SDS011;55850;51.244;6.824;2022-10-16T01:20:54;3.37;;;1.60;;
68843;SDS011;55850;51.244;6.824;2022-10-16T01:26:10;3.65;;;1.92;;
68843;SDS011;55850;51.244;6.824;2022-10-16T01:31:31;2.03;;;1.30;;
68843;SDS011;55850;51.244;6.824;2022-10-16T01:36:40;3.13;;;1.20;;
68843;SDS011;55850;51.244;6.824;2022-10-16T01:41:51;2.88;;;1.30;;
68843;SDS011;55850;51.244;6.824;2022-10-16T01:47:03;5.27;;;1.43;;
68843;SDS011;55850;51.244;6.824;2022-10-16T01:52:10;1.60;;;1.10;;
68843;SDS011;55850;51.244;6.824;2022-10-16T01:57:19;3.45;;;1.50;;
68843;SDS011;55850;51.244;6.824;2022-10-16T02:02:31;3.67;;;1.50;;
68843;SDS011;55850;51.244;6.824;2022-10-16T02:07:38;6.97;;;1.90;;
68843;SDS011;55850;51.244;6.824;2022-10-16T02:12:46;3.58;;;1.58;;
68843;SDS011;55850;51.244;6.824;2022-10-16T02:17:58;3.20;;;1.53;;
68843;SDS011;55850;51.244;6.824;2022-10-16T02:23:03;2.70;;;1.55;;
68843;SDS011;55850;51.244;6.824;2022-10-16T02:28:12;2.92;;;1.85;;
68843;SDS011;55850;51.244;6.824;2022-10-16T02:33:26;3.10;;;1.70;;
68843;SDS011;55850;51.244;6.824;2022-10-16T02:38:33;3.58;;;1.60;;
68843;SDS011;55850;51.244;6.824;2022-10-16T02:43:40;2.15;;;1.60;;
68843;SDS011;55850;51.244;6.824;2022-10-16T02:48:48;4.40;;;1.80;;
68843;SDS011;55850;51.244;6.824;2022-10-16T02:53:53;2.05;;;1.35;;
68843;SDS011;55850;51.244;6.824;2022-10-16T02:58:59;10.53;;;1.53;;
68843;SDS011;55850;51.244;6.824;2022-10-16T03:04:07;6.27;;;2.07;;
68843;SDS011;55850;51.244;6.824;2022-10-16T03:09:12;4.07;;;1.70;;
68843;SDS011;55850;51.244;6.824;2022-10-16T03:14:18;2.97;;;1.57;;
68843;SDS011;55850;51.244;6.824;2022-10-16T03:19:26;3.53;;;1.30;;
68843;SDS011;55850;51.244;6.824;2022-10-16T03:24:32;2.53;;;1.20;;
68843;SDS011;55850;51.244;6.824;2022-10-16T03:29:37;2.20;;;1.37;;
68843;SDS011;55850;51.244;6.824;2022-10-16T03:34:45;3.97;;;1.20;;
68843;SDS011;55850;51.244;6.824;2022-10-16T03:39:50;4.93;;;1.40;;
68843;SDS011;55850;51.244;6.824;2022-10-16T03:44:57;2.33;;;1.23;;
68843;SDS011;55850;51.244;6.824;2022-10-16T03:50:05;1.80;;;1.23;;
68843;SDS011;55850;51.244;6.824;2022-10-16T03:55:12;2.00;;;1.30;;
68843;SDS011;55850;51.244;6.824;2022-10-16T04:00:18;2.30;;;1.37;;
68843;SDS011;55850;51.244;6.824;2022-10-16T04:05:26;1.70;;;1.27;;
68843;SDS011;55850;51.244;6.824;2022-10-16T04:10:31;2.67;;;1.40;;
68843;SDS011;55850;51.244;6.824;2022-10-16T04:15:38;2.67;;;1.07;;
68843;SDS011;55850;51.244;6.824;2022-10-16T04:20:46;1.77;;;1.07;;
68843;SDS011;55850;51.244;6.824;2022-10-16T04:25:52;2.08;;;1.10;;
68843;SDS011;55850;51.244;6.824;2022-10-16T04:30:57;2.63;;;1.10;;
68843;SDS011;55850;51.244;6.824;2022-10-16T04:36:05;1.53;;;0.93;;
68843;SDS011;55850;51.244;6.824;2022-10-16T04:41:11;2.10;;;0.95;;
68843;SDS011;55850;51.244;6.824;2022-10-16T04:46:16;1.83;;;0.93;;
68843;SDS011;55850;51.244;6.824;2022-10-16T04:51:25;2.90;;;0.90;;
68843;SDS011;55850;51.244;6.824;2022-10-16T04:56:30;1.50;;;0.80;;
68843;SDS011;55850;51.244;6.824;2022-10-16T05:01:42;1.27;;;0.80;;
68843;SDS011;55850;51.244;6.824;2022-10-16T05:06:50;2.27;;;0.87;;
68843;SDS011;55850;51.244;6.824;2022-10-16T05:11:56;1.73;;;1.00;;
68843;SDS011;55850;51.244;6.824;2022-10-16T05:17:01;2.17;;;0.97;;
68843;SDS011;55850;51.244;6.824;2022-10-16T05:22:09;1.97;;;0.93;;
68843;SDS011;55850;51.244;6.824;2022-10-16T05:27:15;2.10;;;0.80;;
68843;SDS011;55850;51.244;6.824;2022-10-16T05:32:23;1.20;;;0.90;;
68843;SDS011;55850;51.244;6.824;2022-10-16T05:37:31;1.17;;;0.90;;
68843;SDS011;55850;51.244;6.824;2022-10-16T05:42:37;2.65;;;0.80;;
68843;SDS011;55850;51.244;6.824;2022-10-16T05:47:42;2.10;;;0.90;;
68843;SDS011;55850;51.244;6.824;2022-10-16T05:52:51;1.75;;;1.17;;
68843;SDS011;55850;51.244;6.824;2022-10-16T05:57:57;1.85;;;1.30;;
68843;SDS011;55850;51.244;6.824;2022-10-16T06:03:03;1.50;;;1.10;;
68843;SDS011;55850;51.244;6.824;2022-10-16T06:08:11;1.65;;;1.17;;
68843;SDS011;55850;51.244;6.824;2022-10-16T06:13:17;6.13;;;1.47;;
68843;SDS011;55850;51.244;6.824;2022-10-16T06:18:22;1.87;;;1.00;;
68843;SDS011;55850;51.244;6.824;2022-10-16T06:23:30;2.03;;;1.10;;
68843;SDS011;55850;51.244;6.824;2022-10-16T06:28:36;1.50;;;1.03;;
68843;SDS011;55850;51.244;6.824;2022-10-16T06:33:42;1.87;;;1.20;;
68843;SDS011;55850;51.244;6.824;2022-10-16T06:38:51;1.40;;;1.13;;
68843;SDS011;55850;51.244;6.824;2022-10-16T06:43:57;1.53;;;1.10;;
68843;SDS011;55850;51.244;6.824;2022-10-16T06:49:02;1.53;;;1.10;;
68843;SDS011;55850;51.244;6.824;2022-10-16T06:54:11;2.13;;;1.17;;
68843;SDS011;55850;51.244;6.824;2022-10-16T06:59:17;5.10;;;1.20;;
68843;SDS011;55850;51.244;6.824;2022-10-16T07:04:22;1.90;;;1.40;;
68843;SDS011;55850;51.244;6.824;2022-10-16T07:09:30;2.05;;;1.50;;
68843;SDS011;55850;51.244;6.824;2022-10-16T07:14:36;2.57;;;1.27;;
68843;SDS011;55850;51.244;6.824;2022-10-16T07:19:42;4.63;;;1.80;;
68843;SDS011;55850;51.244;6.824;2022-10-16T07:24:50;5.22;;;1.60;;
68843;SDS011;55850;51.244;6.824;2022-10-16T07:29:56;2.37;;;1.40;;
68843;SDS011;55850;51.244;6.824;2022-10-16T07:35:07;3.33;;;1.60;;
68843;SDS011;55850;51.244;6.824;2022-10-16T07:40:15;2.53;;;1.40;;
68843;SDS011;55850;51.244;6.824;2022-10-16T07:45:21;3.37;;;1.40;;
68843;SDS011;55850;51.244;6.824;2022-10-16T07:50:26;2.83;;;1.30;;
68843;SDS011;55850;51.244;6.824;2022-10-16T07:55:34;4.07;;;1.40;;
68843;SDS011;55850;51.244;6.824;2022-10-16T08:00:40;3.07;;;1.50;;
68843;SDS011;55850;51.244;6.824;2022-10-16T08:05:45;2.77;;;1.50;;
68843;SDS011;55850;51.244;6.824;2022-10-16T08:10:54;3.38;;;1.50;;
68843;SDS011;55850;51.244;6.824;2022-10-16T08:16:00;2.07;;;1.37;;
68843;SDS011;55850;51.244;6.824;2022-10-16T08:21:19;1.93;;;1.23;;
68843;SDS011;55850;51.244;6.824;2022-10-16T08:26:29;3.40;;;1.30;;
68843;SDS011;55850;51.244;6.824;2022-10-16T08:31:34;4.00;;;1.30;;
68843;SDS011;55850;51.244;6.824;2022-10-16T08:36:40;1.30;;;0.90;;
68843;SDS011;55850;51.244;6.824;2022-10-16T08:47:17;2.77;;;1.20;;
68843;SDS011;55850;51.244;6.824;2022-10-16T08:52:25;3.17;;;1.10;;
68843;SDS011;55850;51.244;6.824;2022-10-16T08:57:38;1.33;;;1.02;;
68843;SDS011;55850;51.244;6.824;2022-10-16T09:02:48;1.77;;;0.82;;
68843;SDS011;55850;51.244;6.824;2022-10-16T09:08:03;2.57;;;0.80;;
68843;SDS011;55850;51.244;6.824;2022-10-16T09:13:21;1.95;;;0.82;;
68843;SDS011;55850;51.244;6.824;2022-10-16T09:18:33;2.47;;;0.60;;
68843;SDS011;55850;51.244;6.824;2022-10-16T09:23:43;4.50;;;0.50;;
68843;SDS011;55850;51.244;6.824;2022-10-16T09:28:52;2.83;;;0.60;;
68843;SDS011;55850;51.244;6.824;2022-10-16T09:33:58;4.05;;;0.50;;
68843;SDS011;55850;51.244;6.824;2022-10-16T09:39:09;0.73;;;0.40;;
68843;SDS011;55850;51.244;6.824;2022-10-16T09:44:21;1.30;;;0.50;;
68843;SDS011;55850;51.244;6.824;2022-10-16T09:49:29;1.92;;;0.50;;
68843;SDS011;55850;51.244;6.824;2022-10-16T09:54:36;0.77;;;0.50;;
68843;SDS011;55850;51.244;6.824;2022-10-16T09:59:48;2.25;;;0.60;;
68843;SDS011;55850;51.244;6.824;2022-10-16T10:04:54;1.88;;;0.63;;
68843;SDS011;55850;51.244;6.824;2022-10-16T10:10:01;1.93;;;0.60;;
68843;SDS011;55850;51.244;6.824;2022-10-16T10:15:12;2.42;;;0.60;;
68843;SDS011;55850;51.244;6.824;2022-10-16T10:20:23;1.67;;;0.50;;
68843;SDS011;55850;51.244;6.824;2022-10-16T10:25:42;2.40;;;0.50;;
68843;SDS011;55850;51.244;6.824;2022-10-16T10:31:00;1.25;;;0.40;;
68843;SDS011;55850;51.244;6.824;2022-10-16T10:36:14;2.60;;;0.38;;
68843;SDS011;55850;51.244;6.824;2022-10-16T10:41:38;2.07;;;0.67;;
68843;SDS011;55850;51.244;6.824;2022-10-16T10:47:05;1.20;;;0.50;;
68843;SDS011;55850;51.244;6.824;2022-10-16T10:52:28;1.52;;;0.60;;
68843;SDS011;55850;51.244;6.824;2022-10-16T10:57:52;3.08;;;0.80;;
68843;SDS011;55850;51.244;6.824;2022-10-16T11:03:12;1.37;;;0.50;;
68843;SDS011;55850;51.244;6.824;2022-10-16T11:08:32;1.75;;;0.60;;
68843;SDS011;55850;51.244;6.824;2022-10-16T11:13:43;3.47;;;0.65;;
68843;SDS011;55850;51.244;6.824;2022-10-16T11:18:59;1.20;;;0.50;;
68843;SDS011;55850;51.244;6.824;2022-10-16T11:24:15;2.35;;;0.52;;
68843;SDS011;55850;51.244;6.824;2022-10-16T11:29:26;0.98;;;0.50;;
68843;SDS011;55850;51.244;6.824;2022-10-16T11:34:41;2.83;;;0.80;;
68843;SDS011;55850;51.244;6.824;2022-10-16T11:39:50;1.17;;;0.50;;
68843;SDS011;55850;51.244;6.824;2022-10-16T11:45:00;1.35;;;0.70;;
68843;SDS011;55850;51.244;6.824;2022-10-16T11:50:17;4.68;;;0.50;;
68843;SDS011;55850;51.244;6.824;2022-10-16T11:55:29;4.57;;;0.60;;
68843;SDS011;55850;51.244;6.824;2022-10-16T12:00:46;2.83;;;0.60;;
68843;SDS011;55850;51.244;6.824;2022-10-16T12:06:05;0.95;;;0.40;;
68843;SDS011;55850;51.244;6.824;2022-10-16T12:11:23;4.23;;;0.70;;
68843;SDS011;55850;51.244;6.824;2022-10-16T12:16:37;2.97;;;0.60;;
68843;SDS011;55850;51.244;6.824;2022-10-16T12:21:46;2.15;;;0.60;;
68843;SDS011;55850;51.244;6.824;2022-10-16T12:26:51;3.33;;;0.53;;
68843;SDS011;55850;51.244;6.824;2022-10-16T12:31:57;1.33;;;0.50;;
68843;SDS011;55850;51.244;6.824;2022-10-16T12:37:13;1.17;;;0.60;;
68843;SDS011;55850;51.244;6.824;2022-10-16T12:42:30;2.75;;;0.47;;
68843;SDS011;55850;51.244;6.824;2022-10-16T12:47:47;1.73;;;0.80;;
68843;SDS011;55850;51.244;6.824;2022-10-16T12:52:56;4.47;;;0.50;;
68843;SDS011;55850;51.244;6.824;2022-10-16T12:58:09;1.50;;;0.40;;
68843;SDS011;55850;51.244;6.824;2022-10-16T13:03:36;1.67;;;0.60;;
68843;SDS011;55850;51.244;6.824;2022-10-16T13:09:12;1.88;;;0.50;;
68843;SDS011;55850;51.244;6.824;2022-10-16T13:14:34;2.65;;;0.60;;
68843;SDS011;55850;51.244;6.824;2022-10-16T13:19:53;2.83;;;0.60;;
68843;SDS011;55850;51.244;6.824;2022-10-16T13:25:13;2.73;;;0.70;;
68843;SDS011;55850;51.244;6.824;2022-10-16T13:30:28;1.17;;;0.52;;
68843;SDS011;55850;51.244;6.824;2022-10-16T13:35:35;4.65;;;0.43;;
68843;SDS011;55850;51.244;6.824;2022-10-16T13:40:50;7.13;;;0.83;;
68843;SDS011;55850;51.244;6.824;2022-10-16T13:45:59;1.27;;;0.68;;
68843;SDS011;55850;51.244;6.824;2022-10-16T13:51:07;1.15;;;0.50;;
68843;SDS011;55850;51.244;6.824;2022-10-16T13:56:20;1.50;;;0.50;;
68843;SDS011;55850;51.244;6.824;2022-10-16T14:01:27;2.65;;;0.50;;
68843;SDS011;55850;51.244;6.824;2022-10-16T14:06:35;3.83;;;0.70;;
68843;SDS011;55850;51.244;6.824;2022-10-16T14:11:48;3.17;;;0.70;;
68843;SDS011;55850;51.244;6.824;2022-10-16T14:16:56;2.53;;;0.80;;
68843;SDS011;55850;51.244;6.824;2022-10-16T14:22:02;4.07;;;0.82;;
68843;SDS011;55850;51.244;6.824;2022-10-16T14:32:34;2.20;;;0.90;;
68843;SDS011;55850;51.244;6.824;2022-10-16T14:37:39;1.80;;;0.55;;
68843;SDS011;55850;51.244;6.824;2022-10-16T14:42:47;1.98;;;0.73;;
68843;SDS011;55850;51.244;6.824;2022-10-16T14:47:53;2.53;;;1.00;;
68843;SDS011;55850;51.244;6.824;2022-10-16T14:53:01;2.42;;;0.90;;
68843;SDS011;55850;51.244;6.824;2022-10-16T14:58:10;2.75;;;0.82;;
68843;SDS011;55850;51.244;6.824;2022-10-16T15:03:20;2.17;;;0.50;;
68843;SDS011;55850;51.244;6.824;2022-10-16T15:08:25;2.23;;;0.73;;
68843;SDS011;55850;51.244;6.824;2022-10-16T15:13:33;3.25;;;0.95;;
68843;SDS011;55850;51.244;6.824;2022-10-16T15:18:39;2.80;;;1.05;;
68843;SDS011;55850;51.244;6.824;2022-10-16T15:23:45;2.43;;;1.10;;
68843;SDS011;55850;51.244;6.824;2022-10-16T15:28:54;1.75;;;0.80;;
68843;SDS011;55850;51.244;6.824;2022-10-16T15:33:59;3.40;;;0.90;;
68843;SDS011;55850;51.244;6.824;2022-10-16T15:39:10;2.93;;;0.70;;
68843;SDS011;55850;51.244;6.824;2022-10-16T15:44:21;2.38;;;1.00;;
68843;SDS011;55850;51.244;6.824;2022-10-16T15:49:31;3.55;;;1.10;;
68843;SDS011;55850;51.244;6.824;2022-10-16T15:54:37;7.00;;;1.03;;
68843;SDS011;55850;51.244;6.824;2022-10-16T15:59:45;4.50;;;1.00;;
68843;SDS011;55850;51.244;6.824;2022-10-16T16:04:51;4.25;;;0.82;;
68843;SDS011;55850;51.244;6.824;2022-10-16T16:09:56;2.47;;;0.95;;
68843;SDS011;55850;51.244;6.824;2022-10-16T16:15:06;5.03;;;1.93;;
68843;SDS011;55850;51.244;6.824;2022-10-16T16:20:13;4.97;;;2.40;;
68843;SDS011;55850;51.244;6.824;2022-10-16T16:25:19;2.85;;;1.58;;
68843;SDS011;55850;51.244;6.824;2022-10-16T16:30:27;3.77;;;1.63;;
68843;SDS011;55850;51.244;6.824;2022-10-16T16:35:32;4.57;;;2.63;;
68843;SDS011;55850;51.244;6.824;2022-10-16T16:40:38;4.43;;;2.72;;
68843;SDS011;55850;51.244;6.824;2022-10-16T16:45:47;5.57;;;2.30;;
68843;SDS011;55850;51.244;6.824;2022-10-16T16:50:53;7.53;;;3.53;;
68843;SDS011;55850;51.244;6.824;2022-10-16T16:56:00;6.85;;;2.47;;
68843;SDS011;55850;51.244;6.824;2022-10-16T17:01:09;2.50;;;1.40;;
68843;SDS011;55850;51.244;6.824;2022-10-16T17:06:24;4.73;;;1.70;;
68843;SDS011;55850;51.244;6.824;2022-10-16T17:11:32;4.78;;;2.00;;
68843;SDS011;55850;51.244;6.824;2022-10-16T17:16:41;3.25;;;1.75;;
68843;SDS011;55850;51.244;6.824;2022-10-16T17:21:47;2.53;;;1.40;;
68843;SDS011;55850;51.244;6.824;2022-10-16T17:26:55;4.05;;;1.83;;
68843;SDS011;55850;51.244;6.824;2022-10-16T17:32:03;4.03;;;2.17;;
68843;SDS011;55850;51.244;6.824;2022-10-16T17:37:09;3.20;;;1.73;;
68843;SDS011;55850;51.244;6.824;2022-10-16T17:42:19;4.35;;;1.90;;
68843;SDS011;55850;51.244;6.824;2022-10-16T17:47:27;4.78;;;1.80;;
68843;SDS011;55850;51.244;6.824;2022-10-16T17:52:33;2.63;;;1.70;;
68843;SDS011;55850;51.244;6.824;2022-10-16T17:57:39;5.33;;;2.87;;
68843;SDS011;55850;51.244;6.824;2022-10-16T18:02:49;3.63;;;1.75;;
68843;SDS011;55850;51.244;6.824;2022-10-16T18:07:55;4.57;;;2.17;;
68843;SDS011;55850;51.244;6.824;2022-10-16T18:13:01;3.60;;;1.50;;
68843;SDS011;55850;51.244;6.824;2022-10-16T18:18:09;2.38;;;1.58;;
68843;SDS011;55850;51.244;6.824;2022-10-16T18:23:14;4.30;;;2.70;;
68843;SDS011;55850;51.244;6.824;2022-10-16T18:28:20;3.80;;;2.37;;
68843;SDS011;55850;51.244;6.824;2022-10-16T18:33:29;3.80;;;2.10;;
68843;SDS011;55850;51.244;6.824;2022-10-16T18:38:36;2.80;;;1.70;;
68843;SDS011;55850;51.244;6.824;2022-10-16T18:43:42;4.07;;;1.40;;
68843;SDS011;55850;51.244;6.824;2022-10-16T18:48:51;4.00;;;2.43;;
68843;SDS011;55850;51.244;6.824;2022-10-16T18:53:58;5.03;;;2.83;;
68843;SDS011;55850;51.244;6.824;2022-10-16T18:59:05;3.72;;;2.30;;
68843;SDS011;55850;51.244;6.824;2022-10-16T19:04:16;7.43;;;3.20;;
68843;SDS011;55850;51.244;6.824;2022-10-16T19:09:23;4.68;;;2.33;;
68843;SDS011;55850;51.244;6.824;2022-10-16T19:14:29;3.35;;;2.13;;
68843;SDS011;55850;51.244;6.824;2022-10-16T19:19:38;4.40;;;2.30;;
68843;SDS011;55850;51.244;6.824;2022-10-16T19:24:43;6.05;;;2.70;;
68843;SDS011;55850;51.244;6.824;2022-10-16T19:29:50;3.92;;;2.15;;
68843;SDS011;55850;51.244;6.824;2022-10-16T19:34:58;3.07;;;2.07;;
68843;SDS011;55850;51.244;6.824;2022-10-16T19:40:05;3.23;;;1.50;;
68843;SDS011;55850;51.244;6.824;2022-10-16T19:45:14;2.47;;;1.70;;
68843;SDS011;55850;51.244;6.824;2022-10-16T19:50:22;3.72;;;1.90;;
68843;SDS011;55850;51.244;6.824;2022-10-16T19:55:29;5.90;;;2.10;;
68843;SDS011;55850;51.244;6.824;2022-10-16T20:00:35;4.60;;;1.77;;
68843;SDS011;55850;51.244;6.824;2022-10-16T20:05:51;2.45;;;1.77;;
68843;SDS011;55850;51.244;6.824;2022-10-16T20:10:57;4.97;;;2.30;;
68843;SDS011;55850;51.244;6.824;2022-10-16T20:16:05;3.67;;;1.70;;
68843;SDS011;55850;51.244;6.824;2022-10-16T20:21:15;4.13;;;2.20;;
68843;SDS011;55850;51.244;6.824;2022-10-16T20:26:23;2.83;;;2.00;;
68843;SDS011;55850;51.244;6.824;2022-10-16T20:31:30;4.50;;;2.00;;
68843;SDS011;55850;51.244;6.824;2022-10-16T20:36:40;2.85;;;2.00;;
68843;SDS011;55850;51.244;6.824;2022-10-16T20:41:48;3.85;;;1.70;;
68843;SDS011;55850;51.244;6.824;2022-10-16T20:46:53;4.27;;;1.80;;
68843;SDS011;55850;51.244;6.824;2022-10-16T20:52:03;5.03;;;2.35;;
68843;SDS011;55850;51.244;6.824;2022-10-16T20:57:09;5.07;;;2.78;;
68843;SDS011;55850;51.244;6.824;2022-10-16T21:02:16;2.00;;;1.80;;
68843;SDS011;55850;51.244;6.824;2022-10-16T21:07:25;3.78;;;2.10;;
68843;SDS011;55850;51.244;6.824;2022-10-16T21:12:31;4.70;;;1.90;;
68843;SDS011;55850;51.244;6.824;2022-10-16T21:17:37;2.40;;;1.90;;
68843;SDS011;55850;51.244;6.824;2022-10-16T21:22:45;5.00;;;2.08;;
68843;SDS011;55850;51.244;6.824;2022-10-16T21:27:50;5.03;;;2.05;;
68843;SDS011;55850;51.244;6.824;2022-10-16T21:32:56;4.07;;;2.03;;
68843;SDS011;55850;51.244;6.824;2022-10-16T21:38:04;6.43;;;2.20;;
68843;SDS011;55850;51.244;6.824;2022-10-16T21:43:09;4.18;;;1.90;;
68843;SDS011;55850;51.244;6.824;2022-10-16T21:48:15;2.93;;;1.97;;
68843;SDS011;55850;51.244;6.824;2022-10-16T21:53:23;6.07;;;2.25;;
68843;SDS011;55850;51.244;6.824;2022-10-16T21:58:29;6.82;;;2.20;;
68843;SDS011;55850;51.244;6.824;2022-10-16T22:03:35;3.23;;;2.53;;
68843;SDS011;55850;51.244;6.824;2022-10-16T22:08:46;3.47;;;2.40;;
68843;SDS011;55850;51.244;6.824;2022-10-16T22:13:53;3.33;;;2.30;;
68843;SDS011;55850;51.244;6.824;2022-10-16T22:18:59;4.47;;;2.60;;
68843;SDS011;55850;51.244;6.824;2022-10-16T22:24:11;6.57;;;2.75;;
68843;SDS011;55850;51.244;6.824;2022-10-16T22:29:17;3.92;;;2.95;;
68843;SDS011;55850;51.244;6.824;2022-10-16T22:34:23;7.87;;;2.97;;
68843;SDS011;55850;51.244;6.824;2022-10-16T22:39:32;8.63;;;3.60;;
68843;SDS011;55850;51.244;6.824;2022-10-16T22:44:38;6.55;;;3.80;;
68843;SDS011;55850;51.244;6.824;2022-10-16T22:49:44;4.73;;;3.60;;
68843;SDS011;55850;51.244;6.824;2022-10-16T22:54:53;5.30;;;3.55;;
68843;SDS011;55850;51.244;6.824;2022-10-16T22:59:58;6.75;;;3.50;;
68843;SDS011;55850;51.244;6.824;2022-10-16T23:05:05;8.33;;;3.77;;
68843;SDS011;55850;51.244;6.824;2022-10-16T23:10:14;6.13;;;3.42;;
68843;SDS011;55850;51.244;6.824;2022-10-16T23:15:20;6.80;;;3.80;;
68843;SDS011;55850;51.244;6.824;2022-10-16T23:20:25;8.67;;;3.90;;
68843;SDS011;55850;51.244;6.824;2022-10-16T23:25:34;5.38;;;3.72;;
68843;SDS011;55850;51.244;6.824;2022-10-16T23:30:40;7.35;;;3.78;;
68843;SDS011;55850;51.244;6.824;2022-10-16T23:35:45;8.20;;;3.73;;
68843;SDS011;55850;51.244;6.824;2022-10-16T23:40:53;6.10;;;3.83;;
68843;SDS011;55850;51.244;6.824;2022-10-16T23:45:59;8.10;;;4.22;;
68843;SDS011;55850;51.244;6.824;2022-10-16T23:51:04;7.10;;;4.37;;
68843;SDS011;55850;51.244;6.824;2022-10-16T23:56:13;6.53;;;4.00;;
